Time;durP1;ratioP1;P1;durP2;ratioP2;P2;SDS_P1;SDS_P2;PMS_P1;PMS_P2;Temp;Humidity;BMP_temperature;BMP_pressure;BME280_temperature;BME280_humidity;BME280_pressure;Samples;Min_cycle;Max_cycle;Signal;HPM_P1;HPM_P2
2023/05/17 00:02:21;;;;;;;7.37;1.90;;;;;;;19.76;66.32;100799.94;5048365;28;20600;-67
2023/05/17 00:04:47;;;;;;;5.37;2.00;;;;;;;19.74;66.26;100794.59;5044884;28;20188;-68
2023/05/17 00:07:12;;;;;;;4.07;1.90;;;;;;;19.75;66.17;100801.97;5048687;28;20195;-67
2023/05/17 00:09:38;;;;;;;5.67;2.10;;;;;;;19.73;66.29;100794.97;5030850;28;20183;-68
2023/05/17 00:12:03;;;;;;;5.83;2.50;;;;;;;19.73;66.41;100795.81;5048855;28;20289;-67
2023/05/17 00:14:29;;;;;;;6.30;2.20;;;;;;;19.72;66.41;100801.91;5028051;28;20227;-68
2023/05/17 00:16:54;;;;;;;7.70;2.30;;;;;;;19.71;66.52;100803.91;5031677;28;20655;-67
2023/05/17 00:19:20;;;;;;;3.53;1.77;;;;;;;19.71;66.26;100803.91;5048546;28;20654;-67
2023/05/17 00:21:45;;;;;;;4.37;2.20;;;;;;;19.70;66.56;100801.44;5049678;28;20179;-67
2023/05/17 00:24:10;;;;;;;3.03;1.63;;;;;;;19.70;66.52;100808.00;5048497;28;20205;-67
2023/05/17 00:26:36;;;;;;;3.73;1.90;;;;;;;19.69;66.59;100814.94;5030633;28;20176;-67
2023/05/17 00:29:02;;;;;;;9.00;2.33;;;;;;;19.68;66.57;100804.69;5049244;28;20199;-67
2023/05/17 00:31:27;;;;;;;5.20;2.00;;;;;;;19.67;66.40;100810.78;5048549;28;20187;-68
2023/05/17 00:33:53;;;;;;;3.80;1.87;;;;;;;19.66;66.48;100818.53;5048917;28;20987;-68
2023/05/17 00:36:18;;;;;;;4.87;2.80;;;;;;;19.67;66.60;100825.13;5030719;28;20188;-67
2023/05/17 00:38:44;;;;;;;3.40;1.90;;;;;;;19.66;66.43;100818.53;5048897;28;20180;-67
2023/05/17 00:41:10;;;;;;;5.73;2.47;;;;;;;19.65;66.51;100822.63;5049331;28;20156;-67
2023/05/17 00:43:35;;;;;;;4.17;1.90;;;;;;;19.65;66.48;100827.50;5048339;28;20203;-67
2023/05/17 00:46:01;;;;;;;5.60;2.00;;;;;;;19.63;66.41;100813.59;5047706;28;20997;-68
2023/05/17 00:48:27;;;;;;;5.40;2.33;;;;;;;19.63;66.70;100819.31;5047956;28;20180;-68
2023/05/17 00:50:53;;;;;;;5.53;2.17;;;;;;;19.63;66.77;100830.78;5045599;28;20278;-68
2023/05/17 00:53:18;;;;;;;6.03;1.80;;;;;;;19.61;66.63;100827.44;5040004;28;21026;-68
2023/05/17 00:55:44;;;;;;;4.57;1.53;;;;;;;19.61;66.80;100826.63;5019470;28;20211;-67
2023/05/17 00:58:12;;;;;;;5.70;1.57;;;;;;;19.59;66.90;100827.00;5031089;28;20202;-68
2023/05/17 01:00:38;;;;;;;5.73;1.90;;;;;;;19.59;66.87;100824.13;5013792;28;20207;-68
2023/05/17 01:03:04;;;;;;;3.60;1.50;;;;;;;19.58;66.69;100822.47;5027661;28;20414;-68
2023/05/17 01:05:29;;;;;;;3.43;1.33;;;;;;;19.58;66.78;100825.34;5014696;28;20254;-67
2023/05/17 01:07:55;;;;;;;4.50;2.03;;;;;;;19.56;66.71;100824.88;5030791;28;20605;-68
2023/05/17 01:10:23;;;;;;;5.40;1.83;;;;;;;19.57;66.69;100831.44;5012994;28;20188;-67
2023/05/17 01:13:23;;;;;;;4.33;1.50;;;;;;;19.56;66.82;100833.47;5044670;28;20223;-67
2023/05/17 01:16:05;;;;;;;5.00;1.50;;;;;;;19.56;66.89;100830.59;5028247;28;20449;-68
2023/05/17 01:18:43;;;;;;;6.40;1.90;;;;;;;19.55;66.93;100837.53;5032609;28;20434;-67
2023/05/17 01:21:46;;;;;;;4.73;1.67;;;;;;;19.55;66.76;100840.41;5016447;28;20951;-67
2023/05/17 01:24:26;;;;;;;3.50;1.63;;;;;;;19.55;66.57;100839.56;5032545;28;20446;-67
2023/05/17 01:26:52;;;;;;;9.70;1.93;;;;;;;19.54;66.58;100847.34;5030211;28;20441;-67
2023/05/17 01:29:17;;;;;;;6.37;2.10;;;;;;;19.52;66.75;100849.72;5036714;28;20527;-67
2023/05/17 01:31:43;;;;;;;3.30;1.30;;;;;;;19.51;66.87;100853.81;5051223;28;20422;-67
2023/05/17 01:34:08;;;;;;;3.93;1.67;;;;;;;19.51;66.95;100839.47;5051114;28;20192;-67
2023/05/17 01:36:34;;;;;;;4.53;2.10;;;;;;;19.50;66.91;100855.00;5052396;28;20194;-67
2023/05/17 01:39:00;;;;;;;3.30;1.77;;;;;;;19.50;66.91;100854.16;5052547;28;20535;-67
2023/05/17 01:41:29;;;;;;;8.83;2.20;;;;;;;19.50;66.63;100863.59;5037168;28;20472;-67
2023/05/17 01:44:10;;;;;;;3.10;1.67;;;;;;;19.49;66.73;100864.81;5052324;28;20226;-67
2023/05/17 01:46:39;;;;;;;7.10;1.60;;;;;;;19.49;66.82;100867.69;5050787;28;20827;-67
2023/05/17 01:49:09;;;;;;;2.97;1.43;;;;;;;19.49;66.76;100866.84;5051117;28;20553;-67
2023/05/17 01:51:44;;;;;;;3.30;1.87;;;;;;;19.48;66.72;100873.78;5049365;28;20491;-67
2023/05/17 01:54:10;;;;;;;3.83;1.70;;;;;;;19.48;66.71;100868.88;5031108;28;20539;-67
2023/05/17 01:56:37;;;;;;;3.83;1.70;;;;;;;19.46;66.96;100859.81;5050203;28;20417;-67
2023/05/17 01:59:03;;;;;;;4.53;1.73;;;;;;;19.47;66.62;100860.66;5058794;28;20461;-67
2023/05/17 02:01:29;;;;;;;5.83;1.67;;;;;;;19.46;66.84;100867.59;5051975;28;20532;-67
2023/05/17 02:03:54;;;;;;;3.93;1.50;;;;;;;19.46;66.87;100871.28;5030585;28;20446;-67
2023/05/17 02:06:20;;;;;;;4.90;1.47;;;;;;;19.44;66.93;100862.25;5051780;28;20195;-67
2023/05/17 02:08:45;;;;;;;5.00;1.93;;;;;;;19.44;66.79;100862.25;5051134;28;20176;-67
2023/05/17 02:11:11;;;;;;;3.23;1.67;;;;;;;19.44;66.70;100867.97;5048178;28;20244;-67
2023/05/17 02:13:36;;;;;;;3.50;1.60;;;;;;;19.44;66.86;100870.84;5049710;28;20567;-68
2023/05/17 02:16:02;;;;;;;4.40;1.37;;;;;;;19.43;66.87;100860.59;5050266;28;20662;-67
2023/05/17 02:18:28;;;;;;;4.67;1.77;;;;;;;19.43;66.74;100871.19;5049491;28;20658;-67
2023/05/17 02:20:53;;;;;;;2.43;1.20;;;;;;;19.43;66.75;100872.03;5049377;28;20406;-67
2023/05/17 02:23:19;;;;;;;3.23;1.50;;;;;;;19.43;66.80;100871.19;5049612;28;20188;-67
2023/05/17 02:25:44;;;;;;;4.17;1.43;;;;;;;19.42;66.81;100876.09;5032133;28;20184;-67
2023/05/17 02:28:09;;;;;;;3.20;1.50;;;;;;;19.41;66.74;100883.03;5049928;28;20633;-66
2023/05/17 02:30:39;;;;;;;5.20;1.80;;;;;;;19.40;66.72;100878.50;5049459;28;20647;-67
2023/05/17 02:33:05;;;;;;;7.00;1.93;;;;;;;19.40;66.45;100878.50;5048673;28;20664;-67
2023/05/17 02:35:30;;;;;;;3.10;1.43;;;;;;;19.40;66.85;100887.09;5049443;28;20433;-67
2023/05/17 02:37:55;;;;;;;4.70;1.47;;;;;;;19.38;66.80;100886.66;5050699;28;20183;-67
2023/05/17 02:40:21;;;;;;;6.70;1.90;;;;;;;19.39;66.63;100894.03;5051137;28;20175;-67
2023/05/17 02:42:46;;;;;;;3.73;1.70;;;;;;;19.37;66.86;100890.69;5032327;28;20192;-67
2023/05/17 02:45:12;;;;;;;2.90;1.30;;;;;;;19.39;66.74;100890.31;5051159;28;20242;-67
2023/05/17 02:47:37;;;;;;;2.70;1.20;;;;;;;19.38;66.65;100897.25;5051163;28;20176;-67
2023/05/17 02:50:03;;;;;;;3.97;1.40;;;;;;;19.38;66.79;100897.25;5048930;28;20269;-67
2023/05/17 02:52:28;;;;;;;4.10;1.47;;;;;;;19.37;66.70;100890.69;5050926;28;20574;-67
2023/05/17 02:54:54;;;;;;;3.70;1.57;;;;;;;19.36;66.22;100891.09;5050009;28;20207;-67
2023/05/17 02:57:19;;;;;;;3.20;1.50;;;;;;;19.37;66.80;100895.59;5031916;28;20179;-67
2023/05/17 02:59:44;;;;;;;4.30;1.60;;;;;;;19.36;66.73;100888.22;5050016;28;20180;-67
2023/05/17 03:02:10;;;;;;;2.93;1.20;;;;;;;19.35;66.64;100887.38;5046019;28;20179;-67
2023/05/17 03:04:35;;;;;;;4.73;1.30;;;;;;;19.34;66.71;100896.34;5049607;28;20666;-67
2023/05/17 03:07:01;;;;;;;3.77;1.40;;;;;;;19.34;66.73;100888.59;5048593;28;20211;-67
2023/05/17 03:09:28;;;;;;;3.30;1.47;;;;;;;19.33;66.68;100895.53;5031905;28;20565;-67
2023/05/17 03:11:54;;;;;;;3.07;1.30;;;;;;;19.34;66.80;100890.59;5050496;28;20298;-67
2023/05/17 03:14:19;;;;;;;3.60;1.77;;;;;;;19.33;66.67;100895.53;5050608;28;20881;-68
2023/05/17 03:16:45;;;;;;;3.57;1.77;;;;;;;19.33;66.83;100894.69;5047818;28;20198;-67
2023/05/17 03:19:10;;;;;;;2.53;1.20;;;;;;;19.33;66.74;100904.13;5012796;28;20176;-67
2023/05/17 03:21:36;;;;;;;4.00;1.77;;;;;;;19.32;66.77;100893.84;5030487;28;20176;-67
2023/05/17 03:24:01;;;;;;;3.37;1.50;;;;;;;19.31;66.74;100906.50;5030551;28;20825;-67
2023/05/17 03:26:27;;;;;;;2.40;1.30;;;;;;;19.30;66.83;100901.97;5026534;28;20944;-67
2023/05/17 03:28:52;;;;;;;4.10;2.13;;;;;;;19.31;66.60;100905.69;5031886;28;20187;-67
2023/05/17 03:31:18;;;;;;;4.03;1.67;;;;;;;19.31;66.85;100908.56;5048471;28;20279;-67
2023/05/17 03:33:44;;;;;;;2.90;1.67;;;;;;;19.30;66.57;100907.72;5032397;28;20192;-67
2023/05/17 03:36:09;;;;;;;3.10;1.47;;;;;;;19.29;66.86;100905.22;5048760;28;20163;-67
2023/05/17 03:38:35;;;;;;;4.17;1.70;;;;;;;19.29;66.84;100908.91;5049998;28;20508;-67
2023/05/17 03:41:01;;;;;;;3.50;1.40;;;;;;;19.29;66.72;100911.78;5049049;28;20191;-67
2023/05/17 03:43:27;;;;;;;4.43;1.47;;;;;;;19.29;66.78;100913.81;5050329;28;20176;-67
2023/05/17 03:45:53;;;;;;;3.10;1.47;;;;;;;19.28;66.83;100923.59;5049020;28;20282;-67
2023/05/17 03:48:18;;;;;;;4.20;1.53;;;;;;;19.27;66.68;100921.94;5049989;28;20898;-67
2023/05/17 03:50:43;;;;;;;3.73;1.20;;;;;;;19.27;66.82;100924.81;5031858;28;20222;-67
2023/05/17 03:53:09;;;;;;;3.40;1.70;;;;;;;19.27;66.90;100933.41;5047853;28;20200;-67
2023/05/17 03:55:34;;;;;;;2.73;1.10;;;;;;;19.25;66.79;100930.91;5026558;28;20176;-67
2023/05/17 03:58:00;;;;;;;2.80;1.17;;;;;;;19.26;66.80;100935.41;5049177;28;20171;-67
2023/05/17 04:00:25;;;;;;;2.50;1.20;;;;;;;19.25;66.78;100936.63;5047860;28;20445;-67
2023/05/17 04:02:51;;;;;;;4.80;1.23;;;;;;;19.24;66.74;100936.97;5047273;28;20175;-67
2023/05/17 04:05:17;;;;;;;3.00;1.50;;;;;;;19.22;67.02;100937.34;5043680;28;20270;-67
2023/05/17 04:07:43;;;;;;;2.80;1.30;;;;;;;19.23;67.04;100935.31;5038239;28;20180;-67
2023/05/17 04:10:08;;;;;;;2.40;1.50;;;;;;;19.24;66.81;100939.84;5002377;28;20450;-67
2023/05/17 04:12:34;;;;;;;3.90;1.57;;;;;;;19.24;67.06;100942.72;5042961;28;20643;-67
2023/05/17 04:15:00;;;;;;;4.70;1.27;;;;;;;19.25;66.79;100941.50;5022638;28;20243;-67
2023/05/17 04:17:26;;;;;;;3.63;0.90;;;;;;;19.26;66.96;100944.00;5024171;28;20196;-67
2023/05/17 04:19:51;;;;;;;3.13;1.13;;;;;;;19.26;66.81;100938.28;5039246;28;20450;-67
2023/05/17 04:22:17;;;;;;;3.60;1.30;;;;;;;19.28;67.14;100950.19;5036478;28;20175;-67
2023/05/17 04:24:42;;;;;;;2.57;1.00;;;;;;;19.29;67.01;100951.88;5048114;28;20176;-67
2023/05/17 04:27:07;;;;;;;3.70;1.50;;;;;;;19.21;66.36;100958.56;5045112;28;20207;-63
2023/05/17 04:29:33;;;;;;;3.13;1.10;;;;;;;19.14;66.11;100954.69;5029437;28;20228;-63
2023/05/17 04:31:58;;;;;;;4.17;1.43;;;;;;;19.04;60.27;100949.50;5043711;28;20244;-63
2023/05/17 04:34:24;;;;;;;5.97;1.47;;;;;;;18.77;55.17;100965.53;5029640;28;20647;-64
2023/05/17 04:36:50;;;;;;;3.87;1.83;;;;;;;18.68;57.46;100959.19;5046721;28;20177;-64
2023/05/17 04:39:18;;;;;;;5.27;1.60;;;;;;;18.93;56.06;100965.56;5046350;28;20945;-63
2023/05/17 04:41:44;;;;;;;4.33;1.57;;;;;;;19.10;55.12;100979.50;5025524;28;20222;-63
2023/05/17 04:44:10;;;;;;;3.17;1.43;;;;;;;19.16;55.30;100973.16;5027107;28;20838;-63
2023/05/17 04:46:36;;;;;;;6.77;1.40;;;;;;;19.25;55.98;100970.13;5024763;28;20180;-64
2023/05/17 04:49:02;;;;;;;1.97;1.07;;;;;;;19.29;55.87;100971.91;5044740;28;20233;-63
2023/05/17 04:51:28;;;;;;;3.17;1.43;;;;;;;19.35;56.11;100969.56;5043642;28;20855;-64
2023/05/17 04:53:53;;;;;;;5.77;1.70;;;;;;;19.39;57.52;100974.19;5000958;28;20578;-64
2023/05/17 04:56:19;;;;;;;4.87;1.87;;;;;;;19.39;57.04;100973.38;5042042;28;20430;-65
2023/05/17 04:58:44;;;;;;;3.13;1.40;;;;;;;19.41;57.35;100983.25;5032035;28;20690;-65
2023/05/17 05:01:10;;;;;;;9.57;3.10;;;;;;;19.46;59.03;100985.00;5030251;28;20183;-64
2023/05/17 05:03:36;;;;;;;7.63;2.00;;;;;;;19.54;58.53;100987.69;5033653;28;20171;-64
2023/05/17 05:06:02;;;;;;;3.93;1.90;;;;;;;19.53;59.26;101002.38;5038408;28;20495;-65
2023/05/17 05:08:28;;;;;;;4.60;1.67;;;;;;;19.58;59.23;100988.59;5044081;28;20643;-64
2023/05/17 05:10:54;;;;;;;3.73;2.10;;;;;;;19.55;59.07;100983.59;5019800;28;20437;-63
2023/05/17 05:13:19;;;;;;;5.10;1.47;;;;;;;19.52;59.75;100984.34;5013815;28;20580;-62
2023/05/17 05:15:44;;;;;;;9.30;1.90;;;;;;;19.43;59.40;100988.59;5034922;28;20230;-62
2023/05/17 05:18:10;;;;;;;4.40;1.73;;;;;;;19.39;58.80;100988.53;5052630;28;20229;-61
2023/05/17 05:20:35;;;;;;;3.43;1.73;;;;;;;19.41;58.33;100997.56;5052349;28;20495;-62
2023/05/17 05:23:02;;;;;;;5.07;1.40;;;;;;;19.42;58.10;101002.09;5027710;28;20631;-62
2023/05/17 05:25:28;;;;;;;5.57;2.43;;;;;;;19.44;58.09;101005.44;5052777;28;20569;-63
2023/05/17 05:27:53;;;;;;;4.17;1.60;;;;;;;19.42;58.25;101012.72;5050762;28;20426;-62
2023/05/17 05:30:21;;;;;;;4.70;1.70;;;;;;;19.38;58.23;101008.94;5038143;28;20191;-64
2023/05/17 05:32:49;;;;;;;7.50;2.10;;;;;;;19.38;58.77;101009.78;5039886;28;20548;-62
2023/05/17 05:35:15;;;;;;;9.23;2.20;;;;;;;19.38;58.53;101011.78;5043078;28;20783;-62
2023/05/17 05:37:41;;;;;;;4.57;1.67;;;;;;;19.39;58.82;101014.28;5033694;28;20453;-62
2023/05/17 05:40:07;;;;;;;4.33;1.53;;;;;;;19.41;59.03;101013.94;5034662;28;20194;-62
2023/05/17 05:42:33;;;;;;;5.70;1.93;;;;;;;19.39;59.12;101014.28;5052161;28;20420;-63
2023/05/17 05:44:58;;;;;;;8.40;2.10;;;;;;;19.39;59.09;101025.75;5052420;28;20410;-63
2023/05/17 05:47:24;;;;;;;3.90;1.60;;;;;;;19.39;59.64;101022.03;5033076;28;20686;-62
2023/05/17 05:49:49;;;;;;;4.10;1.73;;;;;;;19.39;59.81;101019.19;5050586;28;20175;-62
2023/05/17 05:52:14;;;;;;;4.00;1.93;;;;;;;19.37;59.82;101024.44;5047469;28;20258;-62
2023/05/17 05:54:40;;;;;;;3.97;1.70;;;;;;;19.37;60.37;101027.31;5032213;28;20565;-62
2023/05/17 05:57:05;;;;;;;5.07;1.80;;;;;;;19.36;60.29;101031.38;5033271;28;20233;-62
2023/05/17 05:59:31;;;;;;;4.00;1.80;;;;;;;19.35;60.50;101041.16;5033900;28;20192;-62
2023/05/17 06:01:57;;;;;;;4.53;1.60;;;;;;;19.33;60.57;101041.53;5051300;28;20184;-62
2023/05/17 06:04:23;;;;;;;3.70;1.57;;;;;;;19.34;60.75;101034.63;5051564;28;20232;-63
2023/05/17 06:06:49;;;;;;;4.63;2.10;;;;;;;19.32;61.04;101041.91;5051844;28;20984;-62
2023/05/17 06:09:15;;;;;;;4.77;1.50;;;;;;;19.32;61.08;101045.59;5051040;28;20579;-62
2023/05/17 06:11:40;;;;;;;4.57;1.83;;;;;;;19.31;61.32;101046.78;5051508;28;20953;-62
2023/05/17 06:14:06;;;;;;;2.77;1.70;;;;;;;19.32;61.18;101045.59;5019971;28;20192;-62
2023/05/17 06:16:32;;;;;;;3.67;1.60;;;;;;;19.33;61.52;101046.44;5031915;28;20211;-62
2023/05/17 06:18:57;;;;;;;3.17;1.40;;;;;;;19.31;61.46;101052.50;5042692;28;20312;-61
2023/05/17 06:21:23;;;;;;;3.53;1.70;;;;;;;19.32;61.37;101047.63;5031590;28;20561;-62
2023/05/17 06:23:48;;;;;;;3.63;1.40;;;;;;;19.31;61.53;101048.84;5033750;28;20190;-63
2023/05/17 06:26:13;;;;;;;5.60;2.33;;;;;;;19.29;61.82;101049.19;5051649;28;20184;-62
2023/05/17 06:28:39;;;;;;;3.93;1.70;;;;;;;19.30;61.95;101055.75;5050395;28;20196;-62
2023/05/17 06:31:04;;;;;;;6.10;1.53;;;;;;;19.31;61.86;101061.09;5042014;28;20184;-63
2023/05/17 06:33:30;;;;;;;3.20;1.83;;;;;;;19.30;62.06;101055.75;5040681;28;20215;-62
2023/05/17 06:35:55;;;;;;;3.10;1.57;;;;;;;19.30;61.90;101053.72;5050824;28;20175;-62
2023/05/17 06:38:21;;;;;;;4.57;1.47;;;;;;;19.30;62.27;101055.75;5049687;28;20184;-63
2023/05/17 06:40:50;;;;;;;4.43;1.53;;;;;;;19.30;61.85;101059.44;5050366;28;20329;-62
2023/05/17 06:43:15;;;;;;;4.00;1.60;;;;;;;19.28;62.79;101066.75;5033112;28;20176;-62
2023/05/17 06:45:41;;;;;;;4.70;1.70;;;;;;;19.27;62.29;101057.31;5045041;28;20442;-61
2023/05/17 06:48:06;;;;;;;3.50;1.53;;;;;;;19.27;62.56;101060.16;5029819;28;20191;-62
2023/05/17 06:50:31;;;;;;;2.90;1.30;;;;;;;19.28;62.48;101064.72;5034084;28;20179;-62
2023/05/17 06:52:57;;;;;;;6.60;1.87;;;;;;;19.28;62.44;101072.47;5050685;28;20627;-62
2023/05/17 06:55:22;;;;;;;4.13;1.57;;;;;;;19.28;62.71;101064.72;5051195;28;20188;-64
2023/05/17 06:57:48;;;;;;;3.50;1.43;;;;;;;19.27;62.84;101074.47;5031709;28;20192;-63
2023/05/17 07:00:14;;;;;;;4.53;1.70;;;;;;;19.26;62.87;101078.56;5050813;28;20187;-63
2023/05/17 07:02:39;;;;;;;3.13;1.40;;;;;;;19.27;62.80;101070.81;5032106;28;20188;-62
2023/05/17 07:05:05;;;;;;;4.13;1.60;;;;;;;19.26;62.90;101078.56;5016915;28;20435;-62
2023/05/17 07:07:31;;;;;;;3.50;1.60;;;;;;;19.28;63.20;101084.75;5032652;28;20261;-62
2023/05/17 07:09:56;;;;;;;4.37;1.30;;;;;;;19.25;63.10;101074.03;5032447;28;20403;-62
2023/05/17 07:12:21;;;;;;;2.40;1.23;;;;;;;19.25;63.09;101076.91;5050481;28;20227;-63
2023/05/17 07:14:47;;;;;;;6.50;1.80;;;;;;;19.25;63.24;101081.78;5032493;28;20214;-62
2023/05/17 07:17:12;;;;;;;3.57;1.40;;;;;;;19.24;63.25;101088.72;5049999;28;20171;-62
2023/05/17 07:19:38;;;;;;;5.20;1.63;;;;;;;19.24;63.20;101086.69;5050330;28;20561;-63
2023/05/17 07:22:03;;;;;;;3.13;1.70;;;;;;;19.25;63.29;101094.06;5049888;28;20642;-63
2023/05/17 07:24:29;;;;;;;3.20;1.50;;;;;;;19.24;63.52;101092.41;5048468;28;20945;-62
2023/05/17 07:26:54;;;;;;;2.60;1.23;;;;;;;19.25;63.20;101096.94;5031373;28;20183;-63
2023/05/17 07:29:20;;;;;;;3.03;1.40;;;;;;;19.24;63.37;101098.13;5047905;28;20168;-63
2023/05/17 07:31:45;;;;;;;3.20;1.43;;;;;;;19.23;63.40;101096.47;5048189;28;20184;-63
2023/05/17 07:34:11;;;;;;;4.73;1.70;;;;;;;19.23;63.72;101102.22;5047499;28;20651;-63
2023/05/17 07:36:37;;;;;;;3.80;1.40;;;;;;;19.22;63.40;101100.53;5047789;28;20188;-63
2023/05/17 07:39:04;;;;;;;3.03;1.53;;;;;;;19.25;63.37;101096.09;5049274;28;20842;-64
2023/05/17 07:41:30;;;;;;;3.10;1.50;;;;;;;19.25;63.55;101093.22;5047989;28;20176;-64
2023/05/17 07:43:55;;;;;;;2.07;1.23;;;;;;;19.23;63.44;101101.38;5049438;28;20796;-63
2023/05/17 07:46:21;;;;;;;3.90;1.70;;;;;;;19.20;63.86;101099.19;5014684;28;20471;-63
2023/05/17 07:48:46;;;;;;;2.83;1.50;;;;;;;19.21;63.74;101098.00;5030650;28;20649;-64
2023/05/17 07:51:12;;;;;;;2.77;1.43;;;;;;;19.19;63.92;101094.66;5041035;28;20191;-63
2023/05/17 07:53:37;;;;;;;2.60;1.20;;;;;;;19.18;63.98;101088.13;5048919;28;20212;-63
2023/05/17 07:56:03;;;;;;;5.20;2.20;;;;;;;19.18;63.98;101093.00;5030648;28;20940;-64
2023/05/17 07:58:28;;;;;;;3.53;1.40;;;;;;;19.19;63.83;101094.66;5048770;28;20184;-64
2023/05/17 08:00:53;;;;;;;3.50;1.43;;;;;;;19.18;64.01;101087.28;5046381;28;20257;-64
2023/05/17 08:03:19;;;;;;;3.37;1.30;;;;;;;19.17;63.95;101092.16;5048658;28;20557;-63
2023/05/17 08:05:45;;;;;;;4.57;1.40;;;;;;;19.19;63.77;101094.66;5046958;28;20264;-63
2023/05/17 08:08:10;;;;;;;4.40;1.43;;;;;;;19.20;63.99;101090.59;5010247;28;20192;-64
2023/05/17 08:10:36;;;;;;;4.10;1.70;;;;;;;19.18;63.91;101093.00;5029346;28;20218;-64
2023/05/17 08:13:03;;;;;;;3.47;1.10;;;;;;;19.17;63.83;101092.16;5048739;28;20200;-63
2023/05/17 08:15:29;;;;;;;4.50;1.87;;;;;;;19.16;64.11;101099.09;5047877;28;20937;-64
2023/05/17 08:17:54;;;;;;;2.87;1.40;;;;;;;19.18;63.81;101093.00;5012528;28;20565;-63
2023/05/17 08:20:20;;;;;;;2.40;1.20;;;;;;;19.17;64.24;101097.88;5043433;28;20514;-64
2023/05/17 08:22:45;;;;;;;3.30;1.30;;;;;;;19.17;64.06;101097.88;5048504;28;20544;-63
2023/05/17 08:25:11;;;;;;;4.17;1.60;;;;;;;19.17;64.12;101095.03;5046697;28;20226;-62
2023/05/17 08:27:36;;;;;;;2.37;1.30;;;;;;;19.18;64.50;101091.00;5040550;28;20514;-64
2023/05/17 08:30:02;;;;;;;2.53;1.30;;;;;;;19.17;64.17;101089.31;5045444;28;20244;-64
2023/05/17 08:32:28;;;;;;;3.37;1.80;;;;;;;19.17;64.12;101080.72;5029799;28;20806;-63
2023/05/17 08:34:53;;;;;;;3.80;1.60;;;;;;;19.16;64.30;101078.25;5048294;28;20221;-63
2023/05/17 08:37:19;;;;;;;2.57;1.33;;;;;;;19.15;64.32;101083.13;5047597;28;20194;-64
2023/05/17 08:39:44;;;;;;;3.73;1.73;;;;;;;19.16;64.53;101086.84;5048245;28;20704;-63
2023/05/17 08:42:09;;;;;;;2.50;1.30;;;;;;;19.15;64.56;101088.84;5047860;28;20234;-64
2023/05/17 08:44:37;;;;;;;2.73;1.40;;;;;;;19.14;64.31;101083.47;5029401;28;20575;-64
2023/05/17 08:47:03;;;;;;;2.97;1.20;;;;;;;19.13;64.50;101082.66;5030475;28;20164;-63
2023/05/17 08:49:30;;;;;;;2.80;1.23;;;;;;;19.14;64.66;101081.47;5047699;28;21156;-63
2023/05/17 08:51:56;;;;;;;3.87;1.47;;;;;;;19.14;64.40;101086.34;5047637;28;20156;-63
2023/05/17 08:54:22;;;;;;;3.93;1.23;;;;;;;19.13;64.47;101090.41;5047988;28;20830;-62
2023/05/17 08:56:50;;;;;;;2.80;1.50;;;;;;;19.13;64.64;101085.53;5016418;28;20596;-63
2023/05/17 08:59:16;;;;;;;2.40;1.07;;;;;;;19.12;64.29;101083.84;5029164;28;20203;-63
2023/05/17 09:01:41;;;;;;;4.43;1.33;;;;;;;19.11;64.57;101081.38;5028307;28;20422;-64
2023/05/17 09:04:10;;;;;;;2.00;1.10;;;;;;;19.12;64.45;101077.31;5031530;28;20184;-63
2023/05/17 09:06:36;;;;;;;2.93;1.30;;;;;;;19.13;65.00;101079.81;5029409;28;20196;-63
2023/05/17 09:09:01;;;;;;;2.57;1.27;;;;;;;19.12;64.56;101083.84;5028778;28;20441;-63
2023/05/17 09:11:28;;;;;;;2.63;1.60;;;;;;;19.12;64.66;101078.13;5052954;28;20583;-61
2023/05/17 09:13:56;;;;;;;2.43;1.23;;;;;;;19.12;64.51;101089.56;5048505;28;20207;-61
2023/05/17 09:16:22;;;;;;;2.20;1.17;;;;;;;19.11;64.92;101082.19;5048468;28;20419;-60
2023/05/17 09:18:54;;;;;;;3.03;1.40;;;;;;;19.12;64.76;101086.72;5049981;28;20430;-60
2023/05/17 09:21:21;;;;;;;2.73;1.20;;;;;;;19.11;64.78;101085.06;5049036;28;20188;-60
2023/05/17 09:23:47;;;;;;;2.90;1.30;;;;;;;19.11;64.78;101087.09;5031032;28;21091;-61
2023/05/17 09:26:12;;;;;;;2.90;1.30;;;;;;;19.11;64.58;101075.66;5048448;28;20503;-62
2023/05/17 09:28:41;;;;;;;2.43;1.10;;;;;;;19.09;64.72;101090.31;5048063;28;20183;-61
2023/05/17 09:31:12;;;;;;;2.07;1.10;;;;;;;19.10;64.87;101083.38;5048853;28;20578;-61
2023/05/17 09:33:48;;;;;;;3.07;1.10;;;;;;;19.13;64.73;101088.41;5045066;28;20461;-61
2023/05/17 09:36:21;;;;;;;3.40;1.60;;;;;;;19.11;64.54;101082.19;5047958;28;20418;-62
2023/05/17 09:39:09;;;;;;;2.00;1.10;;;;;;;19.12;64.46;101083.84;5036629;28;20780;-61
2023/05/17 09:41:45;;;;;;;3.07;1.37;;;;;;;19.11;64.73;101090.78;5052649;28;20414;-62
2023/05/17 09:44:11;;;;;;;2.30;1.17;;;;;;;19.11;64.72;101089.97;5050732;28;20434;-61
2023/05/17 09:46:46;;;;;;;2.50;1.50;;;;;;;19.10;64.69;101085.41;5052239;28;20426;-61
2023/05/17 09:49:12;;;;;;;2.80;1.60;;;;;;;19.11;64.70;101087.91;5051662;28;20514;-62
2023/05/17 09:51:45;;;;;;;2.80;1.67;;;;;;;19.12;64.82;101085.91;5051586;28;20425;-61
2023/05/17 09:54:11;;;;;;;1.97;0.97;;;;;;;19.13;64.87;101087.56;5052174;28;20188;-62
2023/05/17 09:56:36;;;;;;;2.90;1.10;;;;;;;19.13;64.95;101090.41;5051265;28;20448;-62
2023/05/17 09:59:14;;;;;;;2.87;1.33;;;;;;;19.11;64.87;101087.09;5052393;28;20681;-62
2023/05/17 10:01:40;;;;;;;2.93;1.20;;;;;;;19.11;65.30;101081.38;5050824;28;20187;-61
2023/05/17 10:04:08;;;;;;;3.47;1.37;;;;;;;19.09;64.82;101081.72;5051970;28;20426;-61
2023/05/17 10:06:34;;;;;;;3.60;1.50;;;;;;;19.09;64.95;101084.59;5034157;28;20441;-62
2023/05/17 10:09:00;;;;;;;2.20;1.10;;;;;;;19.09;64.82;101078.88;5050386;28;20766;-61
2023/05/17 10:11:33;;;;;;;2.70;1.27;;;;;;;19.10;65.03;101080.53;5044118;28;20238;-62
2023/05/17 10:14:12;;;;;;;4.20;1.30;;;;;;;19.09;64.98;101070.28;5030124;28;20208;-62
2023/05/17 10:16:37;;;;;;;2.77;1.30;;;;;;;19.10;65.21;101071.09;5031737;28;20421;-61
2023/05/17 10:19:03;;;;;;;3.40;1.27;;;;;;;19.07;65.20;101069.81;5031866;28;20998;-61
2023/05/17 10:21:32;;;;;;;3.50;1.17;;;;;;;19.09;64.98;101081.72;5030600;28;20169;-62
2023/05/17 10:23:59;;;;;;;4.40;1.70;;;;;;;19.10;65.10;101069.09;5044587;28;20203;-61
2023/05/17 10:26:24;;;;;;;3.53;1.13;;;;;;;19.10;64.98;101071.94;5021881;28;20473;-61
2023/05/17 10:28:52;;;;;;;2.53;1.20;;;;;;;19.08;65.11;101071.50;5036669;28;20438;-63
2023/05/17 10:31:18;;;;;;;2.77;1.20;;;;;;;19.06;65.04;101073.88;5051924;28;20332;-62
2023/05/17 10:33:45;;;;;;;2.90;1.50;;;;;;;19.08;65.18;101067.78;5033625;28;20470;-63
2023/05/17 10:36:10;;;;;;;2.10;1.20;;;;;;;19.08;65.22;101071.50;5030861;28;20571;-61
2023/05/17 10:38:36;;;;;;;3.03;1.30;;;;;;;19.09;65.33;101073.16;5040759;28;20430;-62
2023/05/17 10:41:01;;;;;;;2.97;1.10;;;;;;;19.09;65.00;101076.00;5033476;28;20175;-62
2023/05/17 10:43:27;;;;;;;2.77;1.20;;;;;;;19.08;65.11;101070.66;5051580;28;20182;-61
2023/05/17 10:45:53;;;;;;;2.40;1.23;;;;;;;19.08;65.09;101070.66;5016893;28;20178;-63
2023/05/17 10:48:18;;;;;;;2.37;1.40;;;;;;;19.08;65.02;101074.34;5050130;28;20183;-62
2023/05/17 10:50:47;;;;;;;3.87;1.50;;;;;;;19.08;65.02;101080.06;5050201;28;20317;-62
2023/05/17 10:53:12;;;;;;;3.50;1.50;;;;;;;19.07;64.68;101075.53;5051235;28;20171;-62
2023/05/17 10:55:42;;;;;;;2.63;1.50;;;;;;;19.04;65.11;101073.41;5050925;28;20433;-62
2023/05/17 10:58:18;;;;;;;3.00;1.20;;;;;;;19.09;64.87;101078.03;5028567;28;20727;-62
2023/05/17 11:00:45;;;;;;;2.70;1.30;;;;;;;19.07;65.09;101078.38;5013902;28;20439;-63
2023/05/17 11:03:16;;;;;;;2.60;1.23;;;;;;;19.08;64.96;101076.38;5014080;28;20400;-62
2023/05/17 11:06:01;;;;;;;1.90;1.13;;;;;;;19.06;65.40;101075.91;5017530;28;20454;-62
2023/05/17 11:08:27;;;;;;;2.37;1.13;;;;;;;19.07;65.45;101080.44;5050907;28;20450;-61
2023/05/17 11:11:11;;;;;;;3.00;1.43;;;;;;;19.06;65.15;101078.78;5050986;28;20477;-61
2023/05/17 11:13:53;;;;;;;2.17;1.13;;;;;;;19.05;65.23;101077.94;5050667;28;20210;-62
2023/05/17 11:16:26;;;;;;;2.77;1.20;;;;;;;19.03;65.27;101073.78;5033589;28;20767;-61
2023/05/17 11:18:53;;;;;;;2.00;1.10;;;;;;;19.05;65.11;101077.09;5049240;28;20410;-61
2023/05/17 11:21:20;;;;;;;3.80;1.40;;;;;;;19.04;65.39;101075.44;5050154;28;20442;-62
2023/05/17 11:23:45;;;;;;;2.60;1.13;;;;;;;19.04;65.18;101078.28;5033108;28;20425;-62